createdAt,value
2023-02-21T00:02:06.711Z,64.20
2023-02-21T00:04:53.546Z,36.37
2023-02-21T00:07:39.625Z,36.97
2023-02-21T00:10:27.488Z,36.87
2023-02-21T00:13:13.482Z,39.13
2023-02-21T00:16:00.742Z,47.50
2023-02-21T00:18:46.718Z,56.97
2023-02-21T00:21:32.674Z,65.30
2023-02-21T00:24:18.563Z,61.93
2023-02-21T00:27:04.773Z,52.87
2023-02-21T00:29:50.484Z,67.23
2023-02-21T00:32:37.628Z,60.63
2023-02-21T00:35:23.871Z,68.67
2023-02-21T00:38:09.882Z,69.03
2023-02-21T00:40:55.859Z,62.40
2023-02-21T00:43:47.204Z,69.83
2023-02-21T00:46:33.212Z,70.47
2023-02-21T00:49:20.236Z,71.37
2023-02-21T00:52:06.048Z,58.87
2023-02-21T00:54:52.579Z,45.27
2023-02-21T00:57:39.075Z,36.73
2023-02-21T01:00:27.084Z,38.33
2023-02-21T01:03:13.245Z,38.70
2023-02-21T01:06:00.125Z,39.73
2023-02-21T01:08:46.145Z,36.73
2023-02-21T01:11:34.394Z,38.70
2023-02-21T01:14:20.265Z,49.43
2023-02-21T01:17:12.752Z,60.07
2023-02-21T01:19:59.022Z,52.73
2023-02-21T01:22:45.983Z,54.00
2023-02-21T01:25:31.898Z,56.87
2023-02-21T01:28:18.059Z,47.43
2023-02-21T01:31:04.235Z,39.70
2023-02-21T01:33:55.370Z,37.83
2023-02-21T01:36:41.263Z,34.20
2023-02-21T01:39:28.977Z,40.73
2023-02-21T01:42:14.849Z,43.77
2023-02-21T01:45:02.459Z,53.43
2023-02-21T01:47:48.558Z,51.80
2023-02-21T01:50:40.106Z,45.50
2023-02-21T01:53:29.188Z,36.30
2023-02-21T01:56:18.874Z,37.10
2023-02-21T01:59:06.950Z,36.27
2023-02-21T02:01:57.947Z,42.57
2023-02-21T02:04:43.903Z,46.20
2023-02-21T02:07:29.848Z,52.83
2023-02-21T02:10:15.682Z,58.90
2023-02-21T02:13:15.826Z,60.17
2023-02-21T02:15:56.986Z,62.30
2023-02-21T02:18:55.120Z,70.60
2023-02-21T02:21:58.416Z,68.43
2023-02-21T02:24:55.056Z,73.33
2023-02-21T02:28:03.378Z,81.50
2023-02-21T02:31:15.285Z,68.07
2023-02-21T02:34:37.970Z,65.03
2023-02-21T02:37:15.762Z,52.07
2023-02-21T02:39:50.329Z,48.63
2023-02-21T02:42:30.071Z,42.83
2023-02-21T02:45:02.337Z,45.47
2023-02-21T02:47:36.083Z,47.67
2023-02-21T02:50:07.857Z,51.63
2023-02-21T02:52:37.005Z,50.27
2023-02-21T02:55:25.149Z,55.97
2023-02-21T02:57:54.137Z,52.23
2023-02-21T03:00:23.000Z,53.30
2023-02-21T03:03:02.271Z,55.10
2023-02-21T03:05:44.384Z,62.40
2023-02-21T03:08:22.828Z,61.00
2023-02-21T03:10:59.606Z,49.47
2023-02-21T03:13:37.774Z,56.30
2023-02-21T03:16:11.500Z,52.17
2023-02-21T03:18:44.670Z,63.30
2023-02-21T03:21:19.538Z,68.57
2023-02-21T03:23:52.776Z,66.90
2023-02-21T03:26:21.710Z,64.60
2023-02-21T03:28:51.239Z,62.23
2023-02-21T03:31:22.922Z,53.67
2023-02-21T03:33:51.802Z,44.20
2023-02-21T03:36:22.388Z,48.03
2023-02-21T03:38:50.830Z,40.60
2023-02-21T03:41:19.343Z,41.97
2023-02-21T03:43:47.732Z,35.60
2023-02-21T03:46:16.418Z,36.43
2023-02-21T03:48:44.852Z,35.97
2023-02-21T03:51:14.057Z,45.70
2023-02-21T03:53:43.879Z,34.97
2023-02-21T03:56:12.294Z,34.13
2023-02-21T03:58:40.796Z,37.43
2023-02-21T04:01:09.378Z,35.37
2023-02-21T04:03:37.733Z,37.60
2023-02-21T04:06:06.567Z,35.27
2023-02-21T04:08:34.977Z,38.97
2023-02-21T04:11:04.590Z,42.13
2023-02-21T04:13:33.440Z,35.13
2023-02-21T04:16:01.969Z,43.87
2023-02-21T04:18:30.483Z,34.00
2023-02-21T04:20:58.930Z,39.40
2023-02-21T04:23:27.429Z,33.47
2023-02-21T04:25:55.847Z,34.90
2023-02-21T04:28:25.683Z,36.40
2023-02-21T04:30:54.044Z,33.77
2023-02-21T04:33:22.485Z,39.63
2023-02-21T04:35:51.108Z,34.50
2023-02-21T04:38:19.887Z,36.10
2023-02-21T04:40:48.256Z,34.83
2023-02-21T04:43:16.670Z,36.23
2023-02-21T04:45:46.670Z,33.77
2023-02-21T04:48:15.022Z,35.50
2023-02-21T04:50:43.441Z,31.17
2023-02-21T04:53:12.390Z,30.90
2023-02-21T04:55:40.926Z,31.50
2023-02-21T04:58:09.347Z,31.07
2023-02-21T05:00:37.804Z,32.47
2023-02-21T05:03:07.949Z,33.73
2023-02-21T05:05:36.242Z,32.93
2023-02-21T05:08:04.728Z,33.00
2023-02-21T05:10:44.861Z,38.50
2023-02-21T05:13:14.048Z,33.13
2023-02-21T05:15:42.340Z,32.90
2023-02-21T05:18:11.980Z,33.93
2023-02-21T05:20:40.414Z,36.27
2023-02-21T05:23:13.740Z,39.97
2023-02-21T05:25:42.589Z,41.33
2023-02-21T05:28:12.113Z,46.30
2023-02-21T05:30:40.687Z,48.33
2023-02-21T05:33:09.636Z,42.87
2023-02-21T05:35:39.191Z,46.80
2023-02-21T05:38:07.657Z,49.80
2023-02-21T05:40:36.062Z,44.70
2023-02-21T05:43:04.481Z,41.23
2023-02-21T05:45:32.863Z,40.97
2023-02-21T05:48:02.583Z,35.97
2023-02-21T05:50:31.885Z,33.03
2023-02-21T05:53:02.087Z,34.40
2023-02-21T05:55:30.508Z,31.57
2023-02-21T05:57:58.901Z,34.30
2023-02-21T06:00:29.548Z,39.37
2023-02-21T06:02:58.074Z,40.50
2023-02-21T06:05:26.977Z,34.30
2023-02-21T06:07:55.431Z,39.40
2023-02-21T06:10:25.078Z,46.07
2023-02-21T06:12:54.120Z,36.73
2023-02-21T06:15:22.613Z,43.07
2023-02-21T06:17:51.041Z,39.17
2023-02-21T06:20:19.907Z,33.93
2023-02-21T06:22:49.471Z,30.83
2023-02-21T06:25:18.161Z,33.40
2023-02-21T06:27:48.097Z,39.30
2023-02-21T06:30:16.548Z,39.90
2023-02-21T06:32:45.217Z,42.90
2023-02-21T06:35:13.981Z,44.77
2023-02-21T06:37:42.721Z,51.13
2023-02-21T06:40:11.857Z,57.57
2023-02-21T06:42:40.231Z,65.97
2023-02-21T06:45:10.596Z,65.33
2023-02-21T06:47:38.982Z,72.63
2023-02-21T06:50:10.156Z,61.97
2023-02-21T06:52:38.993Z,60.53
2023-02-21T06:55:08.759Z,66.17
2023-02-21T06:57:37.149Z,62.43
2023-02-21T07:00:06.972Z,61.57
2023-02-21T07:02:37.530Z,59.53
2023-02-21T07:05:06.500Z,60.93
2023-02-21T07:07:34.836Z,63.50
2023-02-21T07:10:03.929Z,57.03
2023-02-21T07:12:32.365Z,55.53
2023-02-21T07:15:00.675Z,56.67
2023-02-21T07:17:29.134Z,57.57
2023-02-21T07:19:58.786Z,60.53
2023-02-21T07:22:27.284Z,58.97
2023-02-21T07:24:55.970Z,69.47
2023-02-21T07:27:24.407Z,65.67
2023-02-21T07:29:52.850Z,67.73
2023-02-21T07:32:22.480Z,71.70
2023-02-21T07:34:51.686Z,82.73
2023-02-21T07:37:21.339Z,79.10
2023-02-21T07:39:49.751Z,85.30
2023-02-21T07:42:18.183Z,83.87
2023-02-21T07:44:47.890Z,89.93
2023-02-21T07:47:16.427Z,84.87
2023-02-21T07:49:44.974Z,86.60
2023-02-21T07:52:13.319Z,85.23
2023-02-21T07:54:43.133Z,82.83
2023-02-21T07:57:11.662Z,84.27
2023-02-21T07:59:40.466Z,77.33
2023-02-21T08:02:08.978Z,76.03
2023-02-21T08:04:37.575Z,74.13
2023-02-21T08:07:06.556Z,63.43
2023-02-21T08:09:35.996Z,61.97
2023-02-21T08:12:06.096Z,60.40
2023-02-21T08:14:35.054Z,50.70
2023-02-21T08:17:03.555Z,52.60
2023-02-21T08:19:32.037Z,43.93
2023-02-21T08:22:00.332Z,43.67
2023-02-21T08:24:28.570Z,39.47
2023-02-21T08:26:57.167Z,36.50
2023-02-21T08:29:27.078Z,29.87
2023-02-21T08:31:55.523Z,33.40
2023-02-21T08:34:24.800Z,27.60
2023-02-21T08:36:53.332Z,29.93
2023-02-21T08:39:21.842Z,27.80
2023-02-21T08:41:51.352Z,27.00
2023-02-21T08:44:21.842Z,24.10
2023-02-21T08:46:51.639Z,24.90
2023-02-21T08:49:20.154Z,22.83
2023-02-21T08:51:48.774Z,25.17
2023-02-21T08:54:17.566Z,26.70
2023-02-21T08:56:45.942Z,30.53
2023-02-21T08:59:14.405Z,27.50
2023-02-21T09:01:42.900Z,27.27
2023-02-21T09:04:12.576Z,27.00
2023-02-21T09:06:41.276Z,29.27
2023-02-21T09:09:09.645Z,25.40
2023-02-21T09:11:38.340Z,29.93
2023-02-21T09:14:07.208Z,26.83
2023-02-21T09:16:35.705Z,29.40
2023-02-21T09:19:06.748Z,33.27
2023-02-21T09:21:36.744Z,41.17
2023-02-21T09:24:05.809Z,49.37
2023-02-21T09:26:34.289Z,61.07
2023-02-21T09:29:03.237Z,61.30
2023-02-21T09:31:31.712Z,48.77
2023-02-21T09:34:00.648Z,46.17
2023-02-21T09:36:29.063Z,38.67
2023-02-21T09:38:59.977Z,38.10
2023-02-21T09:41:29.028Z,34.33
2023-02-21T09:43:57.771Z,33.90
2023-02-21T09:46:34.702Z,31.33
2023-02-21T09:49:06.535Z,29.27
2023-02-21T09:51:41.617Z,30.87
2023-02-21T09:54:19.052Z,27.13
2023-02-21T09:56:48.033Z,23.50
2023-02-21T09:59:16.874Z,22.80
2023-02-21T10:01:55.949Z,23.47
2023-02-21T10:04:35.981Z,22.13
2023-02-21T10:07:10.754Z,23.77
2023-02-21T10:09:46.767Z,23.03
2023-02-21T10:12:23.892Z,25.93
2023-02-21T10:15:22.972Z,23.40
2023-02-21T10:17:57.687Z,25.87
2023-02-21T10:20:31.418Z,23.70
2023-02-21T10:23:02.047Z,22.97
2023-02-21T10:25:33.388Z,22.03
2023-02-21T10:28:02.353Z,22.87
2023-02-21T10:30:35.390Z,20.20
2023-02-21T10:33:07.602Z,23.20
2023-02-21T10:35:36.600Z,16.73
2023-02-21T10:38:08.374Z,15.53
2023-02-21T10:40:41.127Z,12.43
2023-02-21T10:43:14.427Z,11.83
2023-02-21T10:45:47.019Z,13.37
2023-02-21T10:48:16.665Z,13.23
2023-02-21T10:50:53.496Z,14.53
2023-02-21T10:53:29.300Z,14.33
2023-02-21T10:56:23.152Z,12.20
2023-02-21T10:58:54.133Z,11.77
2023-02-21T11:01:31.465Z,11.50
2023-02-21T11:04:03.387Z,11.83
2023-02-21T11:06:36.770Z,10.53
2023-02-21T11:09:26.437Z,10.23
2023-02-21T11:12:04.280Z,9.47
2023-02-21T11:14:34.330Z,12.57
2023-02-21T11:17:14.599Z,10.33
2023-02-21T11:19:49.305Z,13.60
2023-02-21T11:22:19.098Z,12.60
2023-02-21T11:24:52.704Z,14.03
2023-02-21T11:27:23.112Z,15.03
2023-02-21T11:29:53.109Z,12.37
2023-02-21T11:32:27.136Z,13.93
2023-02-21T11:35:09.258Z,14.57
2023-02-21T11:37:49.742Z,15.50
2023-02-21T11:40:26.397Z,16.80
2023-02-21T11:43:21.885Z,12.33
2023-02-21T11:46:19.548Z,14.53
2023-02-21T11:48:56.269Z,13.37
2023-02-21T11:51:33.621Z,15.63
2023-02-21T11:54:02.054Z,14.27
2023-02-21T11:56:45.206Z,26.13
2023-02-21T11:59:41.484Z,14.67
2023-02-21T12:02:36.777Z,16.27
2023-02-21T12:05:19.561Z,16.20
2023-02-21T12:07:52.475Z,16.10
2023-02-21T12:10:41.282Z,14.93
2023-02-21T12:13:22.826Z,12.97
2023-02-21T12:16:04.317Z,15.67
2023-02-21T12:18:51.634Z,14.47
2023-02-21T12:21:41.701Z,15.87
2023-02-21T12:24:24.325Z,12.70
2023-02-21T12:27:00.995Z,37.20
2023-02-21T12:29:44.039Z,14.30
2023-02-21T12:32:35.831Z,13.00
2023-02-21T12:35:39.809Z,14.80
2023-02-21T12:38:13.622Z,14.70
2023-02-21T12:40:51.514Z,14.40
2023-02-21T12:43:32.634Z,14.73
2023-02-21T12:46:07.155Z,13.07
2023-02-21T12:48:42.464Z,13.23
2023-02-21T12:51:15.476Z,15.50
2023-02-21T12:53:51.042Z,14.47
2023-02-21T12:56:23.959Z,17.57
2023-02-21T12:58:56.344Z,14.23
2023-02-21T13:01:29.664Z,16.10
2023-02-21T13:04:10.653Z,16.97
2023-02-21T13:06:46.553Z,20.63
2023-02-21T13:09:23.301Z,25.47
2023-02-21T13:11:59.420Z,88.70
2023-02-21T13:14:32.371Z,48.33
2023-02-21T13:17:01.077Z,22.27
2023-02-21T13:19:51.529Z,21.43
2023-02-21T13:22:45.840Z,19.97
2023-02-21T13:25:24.643Z,18.10
2023-02-21T13:28:00.450Z,18.83
2023-02-21T13:30:39.784Z,25.93
2023-02-21T13:33:23.076Z,20.77
2023-02-21T13:35:53.230Z,26.70
2023-02-21T13:38:22.650Z,28.03
2023-02-21T13:40:55.304Z,22.43
2023-02-21T13:43:29.189Z,20.50
2023-02-21T13:46:40.840Z,18.77
2023-02-21T13:49:38.223Z,16.63
2023-02-21T13:52:35.434Z,16.10
2023-02-21T13:55:34.372Z,17.90
2023-02-21T13:58:25.554Z,16.63
2023-02-21T14:00:55.738Z,22.23
2023-02-21T14:03:35.203Z,22.07
2023-02-21T14:06:34.872Z,23.20
2023-02-21T14:09:16.374Z,17.37
2023-02-21T14:11:50.603Z,16.23
2023-02-21T14:14:29.360Z,21.53
2023-02-21T14:17:03.340Z,18.87
2023-02-21T14:19:38.369Z,16.63
2023-02-21T14:22:13.270Z,17.03
2023-02-21T14:24:45.011Z,15.83
2023-02-21T14:27:33.311Z,17.80
2023-02-21T14:30:29.385Z,16.03
2023-02-21T14:33:17.784Z,17.40
2023-02-21T14:35:52.546Z,19.10
2023-02-21T14:38:24.820Z,17.70
2023-02-21T14:41:06.045Z,17.47
2023-02-21T14:43:51.154Z,15.33
2023-02-21T14:46:41.905Z,17.30
2023-02-21T14:49:38.043Z,15.33
2023-02-21T14:52:27.024Z,19.33
2023-02-21T14:55:38.899Z,16.20
2023-02-21T14:58:52.788Z,14.67
2023-02-21T15:01:38.696Z,14.37
2023-02-21T15:04:19.348Z,14.77
2023-02-21T15:07:00.895Z,13.57
2023-02-21T15:09:29.402Z,13.47
2023-02-21T15:11:58.006Z,15.80
2023-02-21T15:14:29.505Z,15.97
2023-02-21T15:17:01.281Z,31.13
2023-02-21T15:19:32.275Z,18.53
2023-02-21T15:22:18.750Z,17.17
2023-02-21T15:25:01.375Z,19.13
2023-02-21T15:27:29.934Z,18.87
2023-02-21T15:30:10.102Z,17.80
2023-02-21T15:32:39.972Z,17.90
2023-02-21T15:35:24.706Z,18.73
2023-02-21T15:37:53.842Z,20.50
2023-02-21T15:40:25.274Z,18.97
2023-02-21T15:42:55.863Z,21.27
2023-02-21T15:45:27.170Z,21.63
2023-02-21T15:47:58.190Z,20.10
2023-02-21T15:50:33.801Z,20.30
2023-02-21T15:53:17.327Z,19.60
2023-02-21T15:55:46.419Z,17.57
2023-02-21T15:58:27.014Z,18.90
2023-02-21T16:01:08.918Z,17.87
2023-02-21T16:03:41.083Z,16.60
2023-02-21T16:06:21.936Z,17.00
2023-02-21T16:09:04.054Z,14.87
2023-02-21T16:11:46.618Z,18.27
2023-02-21T16:14:25.538Z,14.60
2023-02-21T16:17:10.681Z,13.40
2023-02-21T16:19:41.782Z,14.57
2023-02-21T16:22:25.748Z,14.03
2023-02-21T16:25:08.380Z,13.73
2023-02-21T16:27:36.908Z,14.80
2023-02-21T16:30:06.881Z,15.47
2023-02-21T16:32:36.476Z,13.07
2023-02-21T16:35:06.709Z,15.87
2023-02-21T16:37:35.106Z,16.03
2023-02-21T16:40:05.662Z,13.17
2023-02-21T16:42:34.135Z,12.23
2023-02-21T16:45:02.862Z,11.67
2023-02-21T16:47:31.359Z,10.80
2023-02-21T16:49:59.797Z,11.93
2023-02-21T16:52:29.509Z,11.47
2023-02-21T16:55:00.166Z,12.40
2023-02-21T16:57:28.682Z,13.37
2023-02-21T16:59:57.325Z,14.63
2023-02-21T17:02:26.371Z,15.00
2023-02-21T17:04:54.913Z,12.43
2023-02-21T17:07:24.345Z,17.67
2023-02-21T17:09:54.080Z,15.37
2023-02-21T17:12:22.497Z,15.60
2023-02-21T17:14:50.887Z,15.83
2023-02-21T17:17:19.309Z,16.20
2023-02-21T17:19:47.568Z,18.07
2023-02-21T17:22:15.991Z,19.47
2023-02-21T17:24:44.604Z,18.47
2023-02-21T17:27:14.452Z,18.50
2023-02-21T17:29:42.893Z,16.97
2023-02-21T17:32:11.356Z,16.80
2023-02-21T17:34:40.256Z,18.37
2023-02-21T17:37:09.759Z,18.53
2023-02-21T17:39:38.452Z,19.40
2023-02-21T17:42:06.915Z,20.43
2023-02-21T17:44:37.770Z,27.20
2023-02-21T17:47:07.530Z,26.87
2023-02-21T17:49:35.930Z,30.03
2023-02-21T17:52:04.391Z,23.27
2023-02-21T17:54:32.905Z,21.00
2023-02-21T17:57:01.326Z,22.33
2023-02-21T17:59:29.865Z,21.53
2023-02-21T18:01:59.589Z,27.63
2023-02-21T18:04:28.261Z,28.40
2023-02-21T18:06:56.890Z,29.47
2023-02-21T18:09:25.714Z,27.87
2023-02-21T18:11:56.224Z,29.70
2023-02-21T18:14:26.778Z,27.70
2023-02-21T18:16:56.454Z,34.57
2023-02-21T18:19:26.545Z,37.40
2023-02-21T18:21:54.907Z,39.10
2023-02-21T18:24:23.555Z,39.37
2023-02-21T18:26:52.079Z,35.77
2023-02-21T18:29:20.617Z,35.90
2023-02-21T18:31:54.212Z,37.80
2023-02-21T18:34:23.123Z,41.67
2023-02-21T18:36:54.475Z,37.70
2023-02-21T18:39:24.455Z,38.63
2023-02-21T18:41:53.551Z,39.73
2023-02-21T18:44:21.997Z,30.63
2023-02-21T18:46:55.452Z,31.20
2023-02-21T18:49:24.550Z,36.00
2023-02-21T18:51:54.559Z,35.20
2023-02-21T18:54:23.371Z,38.83
2023-02-21T18:56:52.922Z,37.67
2023-02-21T18:59:22.951Z,39.50
2023-02-21T19:01:51.525Z,38.80
2023-02-21T19:04:19.947Z,47.70
2023-02-21T19:06:48.488Z,48.60
2023-02-21T19:09:18.451Z,46.07
2023-02-21T19:11:46.882Z,54.77
2023-02-21T19:14:15.273Z,61.63
2023-02-21T19:16:43.782Z,59.33
2023-02-21T19:19:12.224Z,56.57
2023-02-21T19:21:40.651Z,62.30
2023-02-21T19:24:09.078Z,65.87
2023-02-21T19:26:39.031Z,62.57
2023-02-21T19:29:08.617Z,61.97
2023-02-21T19:31:37.192Z,61.80
2023-02-21T19:34:06.123Z,64.57
2023-02-21T19:36:34.560Z,63.97
2023-02-21T19:39:03.113Z,66.83
2023-02-21T19:41:31.520Z,63.37
2023-02-21T19:44:01.437Z,62.63
2023-02-21T19:46:30.761Z,64.37
2023-02-21T19:49:01.860Z,64.27
2023-02-21T19:51:33.357Z,61.80
2023-02-21T19:54:01.965Z,63.40
2023-02-21T19:56:31.034Z,63.40
2023-02-21T19:59:00.791Z,63.30
2023-02-21T20:01:30.297Z,63.43
2023-02-21T20:03:58.904Z,70.03
2023-02-21T20:06:28.241Z,66.10
2023-02-21T20:08:57.140Z,67.17
2023-02-21T20:11:25.944Z,65.80
2023-02-21T20:13:54.801Z,65.20
2023-02-21T20:16:25.873Z,71.30
2023-02-21T20:18:54.604Z,66.90
2023-02-21T20:21:24.048Z,73.33
2023-02-21T20:23:52.498Z,67.77
2023-02-21T20:26:23.283Z,72.23
2023-02-21T20:28:52.715Z,74.03
2023-02-21T20:31:24.659Z,75.73
2023-02-21T20:33:53.233Z,73.17
2023-02-21T20:36:28.624Z,76.00
2023-02-21T20:38:57.028Z,71.90
2023-02-21T20:41:29.024Z,80.33
2023-02-21T20:43:57.537Z,73.63
2023-02-21T20:46:27.529Z,79.23
2023-02-21T20:48:58.606Z,75.90
2023-02-21T20:51:30.887Z,80.90
2023-02-21T20:54:01.189Z,80.97
2023-02-21T20:56:34.096Z,86.23
2023-02-21T20:59:02.805Z,84.83
2023-02-21T21:01:32.482Z,80.97
2023-02-21T21:04:02.723Z,82.90
2023-02-21T21:06:31.191Z,83.93
2023-02-21T21:08:59.530Z,76.10
2023-02-21T21:11:28.797Z,77.37
2023-02-21T21:13:57.252Z,75.30
2023-02-21T21:16:25.716Z,75.53
2023-02-21T21:18:57.379Z,76.63
2023-02-21T21:21:29.722Z,77.60
2023-02-21T21:23:58.313Z,80.90
2023-02-21T21:26:26.825Z,85.00
2023-02-21T21:28:55.275Z,92.70
2023-02-21T21:31:24.707Z,101.27
2023-02-21T21:33:56.476Z,96.33
2023-02-21T21:36:26.559Z,88.60
2023-02-21T21:38:57.194Z,86.33
2023-02-21T21:41:25.667Z,94.60
2023-02-21T21:43:54.132Z,98.70
2023-02-21T21:46:23.066Z,100.80
2023-02-21T21:48:51.513Z,106.40
2023-02-21T21:51:21.105Z,104.57
2023-02-21T21:53:49.546Z,109.13
2023-02-21T21:56:27.234Z,104.93
2023-02-21T21:58:55.923Z,101.63
2023-02-21T22:01:26.611Z,100.90
2023-02-21T22:03:55.088Z,98.93
2023-02-21T22:06:24.727Z,112.70
2023-02-21T22:08:55.404Z,108.20
2023-02-21T22:11:23.885Z,110.03
2023-02-21T22:13:52.750Z,110.47
2023-02-21T22:16:21.279Z,111.20
2023-02-21T22:18:49.876Z,115.70
2023-02-21T22:21:18.541Z,113.57
2023-02-21T22:23:48.770Z,124.70
2023-02-21T22:26:18.159Z,133.73
2023-02-21T22:28:46.589Z,135.27
2023-02-21T22:31:16.306Z,134.33
2023-02-21T22:33:46.193Z,147.53
2023-02-21T22:36:15.237Z,141.50
2023-02-21T22:38:44.927Z,141.07
2023-02-21T22:41:19.173Z,144.90
2023-02-21T22:43:49.678Z,146.73
2023-02-21T22:46:18.538Z,152.40
2023-02-21T22:48:47.410Z,137.20
2023-02-21T22:51:18.624Z,146.40
2023-02-21T22:53:50.125Z,148.17
2023-02-21T22:56:23.590Z,155.10
2023-02-21T22:58:53.074Z,157.60
2023-02-21T23:01:21.610Z,163.60
2023-02-21T23:03:49.936Z,169.73
2023-02-21T23:06:18.463Z,163.60
2023-02-21T23:08:49.079Z,166.73
2023-02-21T23:11:21.557Z,175.10
2023-02-21T23:13:49.996Z,175.57
2023-02-21T23:16:21.992Z,171.10
2023-02-21T23:18:50.632Z,194.07
2023-02-21T23:21:23.084Z,279.90
2023-02-21T23:23:52.302Z,227.57
2023-02-21T23:26:22.077Z,363.17
2023-02-21T23:28:51.040Z,292.00
2023-02-21T23:31:21.191Z,333.10
2023-02-21T23:33:50.144Z,449.80
2023-02-21T23:36:22.561Z,328.77
2023-02-21T23:38:51.394Z,511.57
2023-02-21T23:41:21.235Z,396.43
2023-02-21T23:43:51.673Z,413.07
2023-02-21T23:46:22.184Z,421.83
2023-02-21T23:48:53.778Z,317.27
2023-02-21T23:51:22.680Z,434.70
2023-02-21T23:53:51.505Z,448.80
2023-02-21T23:56:21.415Z,467.83
2023-02-21T23:58:50.085Z,290.27
